createdAt,value
2019-01-13T00:00:20.777Z,91.80
2019-01-13T00:01:20.763Z,91.70
2019-01-13T00:02:20.747Z,92.13
2019-01-13T00:03:20.743Z,92.23
2019-01-13T00:04:20.872Z,92.02
2019-01-13T00:05:20.725Z,92.27
2019-01-13T00:06:20.710Z,92.33
2019-01-13T00:07:20.699Z,92.42
2019-01-13T00:08:20.688Z,92.16
2019-01-13T00:09:20.727Z,92.32
2019-01-13T00:10:20.713Z,92.70
2019-01-13T00:11:20.656Z,92.38
2019-01-13T00:12:20.654Z,93.12
2019-01-13T00:13:20.635Z,92.38
2019-01-13T00:14:20.629Z,92.38
2019-01-13T00:15:20.620Z,92.74
2019-01-13T00:16:27.638Z,92.52
2019-01-13T00:17:20.600Z,93.12
2019-01-13T00:18:20.586Z,92.85
2019-01-13T00:19:20.575Z,93.06
2019-01-13T00:20:20.564Z,93.06
2019-01-13T00:21:20.560Z,92.74
2019-01-13T00:22:20.637Z,92.85
2019-01-13T00:23:20.537Z,93.27
2019-01-13T00:24:20.531Z,92.99
2019-01-13T00:25:20.511Z,93.59
2019-01-13T00:26:20.505Z,92.99
2019-01-13T00:27:20.507Z,93.06
2019-01-13T00:28:20.506Z,93.21
2019-01-13T00:29:20.496Z,93.80
2019-01-13T00:30:20.465Z,92.95
2019-01-13T00:31:20.454Z,93.70
2019-01-13T00:32:20.442Z,93.48
2019-01-13T00:33:20.435Z,93.70
2019-01-13T00:34:20.459Z,92.95
2019-01-13T00:35:20.459Z,93.27
2019-01-13T00:36:20.397Z,92.89
2019-01-13T00:37:20.394Z,93.06
2019-01-13T00:38:20.386Z,93.38
2019-01-13T00:39:20.369Z,93.31
2019-01-13T00:40:20.399Z,93.74
2019-01-13T00:41:20.357Z,93.38
2019-01-13T00:42:20.337Z,93.06
2019-01-13T00:43:20.329Z,92.46
2019-01-13T00:44:20.324Z,92.63
2019-01-13T00:45:20.308Z,92.89
2019-01-13T00:46:20.468Z,93.21
2019-01-13T00:47:32.112Z,93.31
2019-01-13T00:48:20.283Z,93.63
2019-01-13T00:49:20.271Z,93.74
2019-01-13T00:50:20.261Z,93.85
2019-01-13T00:51:20.256Z,93.21
2019-01-13T00:52:20.282Z,93.10
2019-01-13T00:53:20.229Z,93.21
2019-01-13T00:54:20.218Z,93.21
2019-01-13T00:55:20.217Z,93.21
2019-01-13T00:56:20.197Z,93.31
2019-01-13T00:57:20.183Z,93.10
2019-01-13T00:58:20.191Z,93.31
2019-01-13T00:59:20.171Z,92.99
2019-01-13T01:00:26.497Z,93.63
2019-01-13T01:01:21.149Z,93.59
2019-01-13T01:02:20.134Z,92.78
2019-01-13T01:03:20.123Z,92.78
2019-01-13T01:04:20.130Z,92.46
2019-01-13T01:05:20.102Z,92.46
2019-01-13T01:06:20.092Z,92.46
2019-01-13T01:07:20.083Z,92.25
2019-01-13T01:08:20.071Z,93.21
2019-01-13T01:09:20.063Z,93.21
2019-01-13T01:10:20.145Z,92.78
2019-01-13T01:11:20.037Z,93.31
2019-01-13T01:12:20.028Z,93.95
2019-01-13T01:13:20.019Z,93.48
2019-01-13T01:14:20.022Z,93.52
2019-01-13T01:15:19.996Z,93.70
2019-01-13T01:16:20.022Z,93.10
2019-01-13T01:17:19.975Z,92.95
2019-01-13T01:18:30.243Z,92.95
2019-01-13T01:19:19.960Z,92.42
2019-01-13T01:20:19.948Z,92.63
2019-01-13T01:21:19.938Z,92.63
2019-01-13T01:22:19.963Z,92.21
2019-01-13T01:23:19.922Z,93.06
2019-01-13T01:24:19.907Z,92.10
2019-01-13T01:25:19.897Z,91.99
2019-01-13T01:26:19.891Z,91.89
2019-01-13T01:27:19.873Z,91.89
2019-01-13T01:28:20.036Z,92.10
2019-01-13T01:29:19.853Z,91.99
2019-01-13T01:30:19.850Z,92.14
2019-01-13T01:31:19.839Z,92.03
2019-01-13T01:32:19.829Z,92.14
2019-01-13T01:33:25.920Z,92.25
2019-01-13T01:34:20.847Z,92.99
2019-01-13T01:35:19.799Z,92.78
2019-01-13T01:36:19.788Z,92.42
2019-01-13T01:37:19.783Z,92.46
2019-01-13T01:38:19.765Z,92.10
2019-01-13T01:39:19.752Z,92.57
2019-01-13T01:40:19.786Z,92.46
2019-01-13T01:41:19.731Z,92.95
2019-01-13T01:42:19.725Z,92.52
2019-01-13T01:43:19.716Z,92.74
2019-01-13T01:44:19.706Z,92.52
2019-01-13T01:45:19.693Z,92.10
2019-01-13T01:46:19.723Z,92.10
2019-01-13T01:47:19.672Z,92.42
2019-01-13T01:48:19.666Z,92.57
2019-01-13T01:49:30.250Z,92.63
2019-01-13T01:50:19.640Z,92.25
2019-01-13T01:51:19.629Z,92.46
2019-01-13T01:52:19.656Z,92.35
2019-01-13T01:53:19.609Z,92.68
2019-01-13T01:54:19.610Z,92.46
2019-01-13T01:55:19.593Z,92.46
2019-01-13T01:56:19.579Z,92.57
2019-01-13T01:57:19.573Z,92.46
2019-01-13T01:58:19.595Z,92.89
2019-01-13T01:59:19.552Z,92.68
2019-01-13T02:00:19.535Z,92.78
2019-01-13T02:01:19.531Z,92.57
2019-01-13T02:02:19.528Z,93.21
2019-01-13T02:03:19.513Z,92.99
2019-01-13T02:04:19.583Z,93.16
2019-01-13T02:05:19.543Z,92.78
2019-01-13T02:06:19.537Z,92.78
2019-01-13T02:07:19.480Z,93.21
2019-01-13T02:08:19.459Z,93.42
2019-01-13T02:09:19.487Z,93.38
2019-01-13T02:10:19.469Z,93.27
2019-01-13T02:11:19.423Z,92.63
2019-01-13T02:12:19.416Z,93.16
2019-01-13T02:13:19.403Z,92.63
2019-01-13T02:14:19.395Z,92.21
2019-01-13T02:15:19.390Z,92.74
2019-01-13T02:16:19.541Z,91.99
2019-01-13T02:17:19.368Z,92.52
2019-01-13T02:18:19.354Z,92.10
2019-01-13T02:19:19.344Z,91.99
2019-01-13T02:20:29.332Z,92.21
2019-01-13T02:21:19.318Z,91.56
2019-01-13T02:22:19.345Z,92.10
2019-01-13T02:23:19.300Z,91.89
2019-01-13T02:24:19.287Z,92.42
2019-01-13T02:25:19.287Z,92.42
2019-01-13T02:26:19.301Z,92.10
2019-01-13T02:27:19.262Z,92.25
2019-01-13T02:28:19.430Z,92.10
2019-01-13T02:29:19.240Z,92.14
2019-01-13T02:30:19.228Z,92.42
2019-01-13T02:31:19.222Z,92.68
2019-01-13T02:32:19.206Z,92.35
2019-01-13T02:33:19.201Z,92.14
2019-01-13T02:34:19.205Z,92.14
2019-01-13T02:35:19.179Z,91.99
2019-01-13T02:36:19.171Z,92.57
2019-01-13T02:37:19.164Z,92.35
2019-01-13T02:38:19.146Z,92.68
2019-01-13T02:39:19.145Z,91.99
2019-01-13T02:40:19.178Z,92.14
2019-01-13T02:41:19.120Z,91.99
2019-01-13T02:42:19.103Z,92.57
2019-01-13T02:43:19.092Z,92.03
2019-01-13T02:44:19.087Z,92.95
2019-01-13T02:45:19.080Z,92.42
2019-01-13T02:46:19.086Z,92.46
2019-01-13T02:47:19.053Z,92.46
2019-01-13T02:48:19.041Z,92.25
2019-01-13T02:49:19.031Z,92.03
2019-01-13T02:50:19.021Z,91.99
2019-01-13T02:51:29.684Z,92.89
2019-01-13T02:52:19.009Z,92.14
2019-01-13T02:53:18.997Z,91.99
2019-01-13T02:54:18.984Z,92.21
2019-01-13T02:55:18.975Z,92.63
2019-01-13T02:56:18.964Z,92.03
2019-01-13T02:57:19.118Z,91.99
2019-01-13T02:58:18.943Z,92.03
2019-01-13T02:59:18.937Z,91.89
2019-01-13T03:00:18.921Z,92.35
2019-01-13T03:01:18.923Z,92.03
2019-01-13T03:02:18.898Z,92.63
2019-01-13T03:03:19.067Z,92.63
2019-01-13T03:04:18.888Z,91.93
2019-01-13T03:05:18.868Z,91.82
2019-01-13T03:06:18.870Z,91.93
2019-01-13T03:07:18.850Z,92.03
2019-01-13T03:08:18.843Z,92.03
2019-01-13T03:09:18.864Z,92.46
2019-01-13T03:10:18.824Z,92.68
2019-01-13T03:11:18.811Z,92.35
2019-01-13T03:12:18.798Z,92.14
2019-01-13T03:13:18.792Z,91.93
2019-01-13T03:14:18.781Z,92.03
2019-01-13T03:15:19.810Z,91.82
2019-01-13T03:16:18.759Z,92.14
2019-01-13T03:17:18.745Z,92.25
2019-01-13T03:18:18.737Z,91.82
2019-01-13T03:19:18.733Z,92.03
2019-01-13T03:20:18.717Z,92.46
2019-01-13T03:21:18.748Z,92.46
2019-01-13T03:22:31.106Z,92.14
2019-01-13T03:23:18.689Z,92.14
2019-01-13T03:24:18.684Z,91.97
2019-01-13T03:25:18.673Z,92.46
2019-01-13T03:26:18.655Z,92.25
2019-01-13T03:27:18.662Z,92.46
2019-01-13T03:28:18.640Z,92.14
2019-01-13T03:29:18.636Z,92.35
2019-01-13T03:30:18.618Z,91.78
2019-01-13T03:31:18.609Z,92.14
2019-01-13T03:32:18.590Z,92.03
2019-01-13T03:33:18.686Z,92.63
2019-01-13T03:34:18.587Z,91.89
2019-01-13T03:35:18.574Z,92.52
2019-01-13T03:36:18.554Z,92.63
2019-01-13T03:37:18.540Z,92.21
2019-01-13T03:38:18.530Z,92.21
2019-01-13T03:39:18.558Z,92.38
2019-01-13T03:40:18.512Z,91.99
2019-01-13T03:41:18.496Z,91.99
2019-01-13T03:42:18.489Z,91.96
2019-01-13T03:43:18.483Z,92.32
2019-01-13T03:44:18.472Z,91.96
2019-01-13T03:45:18.501Z,91.99
2019-01-13T03:46:18.459Z,92.06
2019-01-13T03:47:18.434Z,91.89
2019-01-13T03:48:18.430Z,92.10
2019-01-13T03:49:18.419Z,91.74
2019-01-13T03:50:18.409Z,91.74
2019-01-13T03:51:18.432Z,91.53
2019-01-13T03:52:18.397Z,91.25
2019-01-13T03:53:29.869Z,91.63
2019-01-13T03:54:18.365Z,91.42
2019-01-13T03:55:18.360Z,91.63
2019-01-13T03:56:18.349Z,90.67
2019-01-13T03:57:18.370Z,91.42
2019-01-13T03:58:18.326Z,90.89
2019-01-13T03:59:18.311Z,90.89
2019-01-13T04:00:18.304Z,91.53
2019-01-13T04:01:18.785Z,91.46
2019-01-13T04:02:18.290Z,91.42
2019-01-13T04:03:18.309Z,91.99
2019-01-13T04:04:18.267Z,91.36
2019-01-13T04:05:18.252Z,91.46
2019-01-13T04:06:18.246Z,91.36
2019-01-13T04:07:18.230Z,91.36
2019-01-13T04:08:18.222Z,91.56
2019-01-13T04:09:18.390Z,91.56
2019-01-13T04:10:18.200Z,91.46
2019-01-13T04:11:18.195Z,91.36
2019-01-13T04:12:18.185Z,91.99
2019-01-13T04:13:18.174Z,91.78
2019-01-13T04:14:18.159Z,91.46
2019-01-13T04:15:18.191Z,91.46
2019-01-13T04:16:18.137Z,91.14
2019-01-13T04:17:18.128Z,91.46
2019-01-13T04:18:18.120Z,91.67
2019-01-13T04:19:18.119Z,91.61
2019-01-13T04:20:18.097Z,91.39
2019-01-13T04:21:18.125Z,91.72
2019-01-13T04:22:18.081Z,91.78
2019-01-13T04:23:18.071Z,91.93
2019-01-13T04:24:28.112Z,92.03
2019-01-13T04:25:18.051Z,91.82
2019-01-13T04:26:18.036Z,91.82
2019-01-13T04:27:18.057Z,91.93
2019-01-13T04:28:18.117Z,91.72
2019-01-13T04:29:18.016Z,91.82
2019-01-13T04:30:17.997Z,91.72
2019-01-13T04:31:17.983Z,91.72
2019-01-13T04:32:17.986Z,92.14
2019-01-13T04:33:18.002Z,92.25
2019-01-13T04:34:17.954Z,92.03
2019-01-13T04:35:17.945Z,92.03
2019-01-13T04:36:17.939Z,92.03
2019-01-13T04:37:17.929Z,92.14
2019-01-13T04:38:17.914Z,92.14
2019-01-13T04:39:17.942Z,92.03
2019-01-13T04:40:17.892Z,92.14
2019-01-13T04:41:17.882Z,92.03
2019-01-13T04:42:17.868Z,91.82
2019-01-13T04:43:17.864Z,91.82
2019-01-13T04:44:17.853Z,91.72
2019-01-13T04:45:17.883Z,91.93
2019-01-13T04:46:17.831Z,92.03
2019-01-13T04:47:17.822Z,92.14
2019-01-13T04:48:17.810Z,91.39
2019-01-13T04:49:17.810Z,91.97
2019-01-13T04:50:17.788Z,92.08
2019-01-13T04:51:17.818Z,91.86
2019-01-13T04:52:17.769Z,91.97
2019-01-13T04:53:17.761Z,92.29
2019-01-13T04:54:17.748Z,92.08
2019-01-13T04:55:28.050Z,92.18
2019-01-13T04:56:17.725Z,91.75
2019-01-13T04:57:17.897Z,92.18
2019-01-13T04:58:17.707Z,92.68
2019-01-13T04:59:17.703Z,92.18
2019-01-13T05:00:17.684Z,92.61
2019-01-13T05:01:17.673Z,92.72
2019-01-13T05:02:17.672Z,91.86
2019-01-13T05:03:17.694Z,92.18
2019-01-13T05:04:17.645Z,92.08
2019-01-13T05:05:17.632Z,92.03
2019-01-13T05:06:17.630Z,92.14
2019-01-13T05:07:17.627Z,91.97
2019-01-13T05:08:17.605Z,92.03
2019-01-13T05:09:17.637Z,92.08
2019-01-13T05:10:17.586Z,91.97
2019-01-13T05:11:17.576Z,92.08
2019-01-13T05:12:17.565Z,92.08
2019-01-13T05:13:17.571Z,92.18
2019-01-13T05:14:17.544Z,91.97
2019-01-13T05:15:17.574Z,92.29
2019-01-13T05:16:17.528Z,92.08
2019-01-13T05:17:17.510Z,92.18
2019-01-13T05:18:17.503Z,92.08
2019-01-13T05:19:17.504Z,91.86
2019-01-13T05:20:17.483Z,91.97
2019-01-13T05:21:17.491Z,92.61
2019-01-13T05:22:17.459Z,91.86
2019-01-13T05:23:17.452Z,92.40
2019-01-13T05:24:17.442Z,91.91
2019-01-13T05:25:17.442Z,91.80
2019-01-13T05:26:29.248Z,91.69
2019-01-13T05:27:17.410Z,91.27
2019-01-13T05:28:17.397Z,91.52
2019-01-13T05:29:17.388Z,91.30
2019-01-13T05:30:17.384Z,91.63
2019-01-13T05:31:17.367Z,91.41
2019-01-13T05:32:17.376Z,91.77
2019-01-13T05:33:17.354Z,91.77
2019-01-13T05:34:17.408Z,91.56
2019-01-13T05:35:17.331Z,92.16
2019-01-13T05:36:17.314Z,92.20
2019-01-13T05:37:17.305Z,92.10
2019-01-13T05:38:17.319Z,92.30
2019-01-13T05:39:17.286Z,91.88
2019-01-13T05:40:17.283Z,91.88
2019-01-13T05:41:17.263Z,92.20
2019-01-13T05:42:17.259Z,92.30
2019-01-13T05:43:17.258Z,92.30
2019-01-13T05:44:17.277Z,91.99
2019-01-13T05:45:17.226Z,91.35
2019-01-13T05:46:17.213Z,91.71
2019-01-13T05:47:17.204Z,91.71
2019-01-13T05:48:17.199Z,91.82
2019-01-13T05:49:17.185Z,92.24
2019-01-13T05:50:17.241Z,92.13
2019-01-13T05:51:17.169Z,92.39
2019-01-13T05:52:17.151Z,92.67
2019-01-13T05:53:17.151Z,92.88
2019-01-13T05:54:17.134Z,92.39
2019-01-13T05:55:17.121Z,92.50
2019-01-13T05:56:17.286Z,93.24
2019-01-13T05:57:27.412Z,92.82
2019-01-13T05:58:17.091Z,93.35
2019-01-13T05:59:17.079Z,93.50
2019-01-13T06:00:17.075Z,93.57
2019-01-13T06:01:17.062Z,93.57
2019-01-13T06:02:17.091Z,94.14
2019-01-13T06:03:17.042Z,93.50
2019-01-13T06:04:17.029Z,93.50
2019-01-13T06:05:17.030Z,93.39
2019-01-13T06:06:17.006Z,93.39
2019-01-13T06:07:16.998Z,93.50
2019-01-13T06:08:17.024Z,93.22
2019-01-13T06:09:16.977Z,92.75
2019-01-13T06:10:16.979Z,92.36
2019-01-13T06:11:16.959Z,92.15
2019-01-13T06:12:16.946Z,92.04
2019-01-13T06:13:16.939Z,91.72
2019-01-13T06:14:16.967Z,91.83
2019-01-13T06:15:16.921Z,91.98
2019-01-13T06:16:16.911Z,91.02
2019-01-13T06:17:16.899Z,91.12
2019-01-13T06:18:16.890Z,91.02
2019-01-13T06:19:16.879Z,92.08
2019-01-13T06:20:16.881Z,91.59
2019-01-13T06:21:16.853Z,92.45
2019-01-13T06:22:16.852Z,92.55
2019-01-13T06:23:16.836Z,92.45
2019-01-13T06:24:16.825Z,92.55
2019-01-13T06:25:16.815Z,92.23
2019-01-13T06:26:16.839Z,91.80
2019-01-13T06:27:16.798Z,91.91
2019-01-13T06:28:27.366Z,91.31
2019-01-13T06:29:16.770Z,91.09
2019-01-13T06:30:16.766Z,90.92
2019-01-13T06:31:16.755Z,90.92
2019-01-13T06:32:16.777Z,91.03
2019-01-13T06:33:16.737Z,90.60
2019-01-13T06:34:16.722Z,91.35
2019-01-13T06:35:16.732Z,91.56
2019-01-13T06:36:16.704Z,90.81
2019-01-13T06:37:16.716Z,90.17
2019-01-13T06:38:16.694Z,90.60
2019-01-13T06:39:16.668Z,90.81
2019-01-13T06:40:17.212Z,91.42
2019-01-13T06:41:16.647Z,91.85
2019-01-13T06:42:16.643Z,92.70
2019-01-13T06:43:16.626Z,92.06
2019-01-13T06:44:16.661Z,91.78
2019-01-13T06:45:16.610Z,91.99
2019-01-13T06:46:16.594Z,92.06
2019-01-13T06:47:16.586Z,92.17
2019-01-13T06:48:16.579Z,92.49
2019-01-13T06:49:16.571Z,92.38
2019-01-13T06:50:16.594Z,92.42
2019-01-13T06:51:16.542Z,92.32
2019-01-13T06:52:16.535Z,92.10
2019-01-13T06:53:16.522Z,92.21
2019-01-13T06:54:16.517Z,91.99
2019-01-13T06:55:16.506Z,91.46
2019-01-13T06:56:16.530Z,91.14
2019-01-13T06:57:16.484Z,91.20
2019-01-13T06:58:16.471Z,91.46
2019-01-13T06:59:26.574Z,92.17
2019-01-13T07:00:16.451Z,92.17
2019-01-13T07:01:16.442Z,92.06
2019-01-13T07:02:16.606Z,92.38
2019-01-13T07:03:16.424Z,92.81
2019-01-13T07:04:16.416Z,92.60
2019-01-13T07:05:16.401Z,92.49
2019-01-13T07:06:16.391Z,92.60
2019-01-13T07:07:16.386Z,92.34
2019-01-13T07:08:16.415Z,92.55
2019-01-13T07:09:16.357Z,92.23
2019-01-13T07:10:16.351Z,92.34
2019-01-13T07:11:16.337Z,92.77
2019-01-13T07:12:16.338Z,92.34
2019-01-13T07:13:16.321Z,91.06
2019-01-13T07:14:16.366Z,89.88
2019-01-13T07:15:16.305Z,89.34
2019-01-13T07:16:16.294Z,88.49
2019-01-13T07:17:16.281Z,88.10
2019-01-13T07:18:16.279Z,87.35
2019-01-13T07:19:16.257Z,87.24
2019-01-13T07:20:16.278Z,87.28
2019-01-13T07:21:16.239Z,87.71
2019-01-13T07:22:16.226Z,88.18
2019-01-13T07:23:16.218Z,88.82
2019-01-13T07:24:16.225Z,88.14
2019-01-13T07:25:16.201Z,88.67
2019-01-13T07:26:16.263Z,88.57
2019-01-13T07:27:16.172Z,88.82
2019-01-13T07:28:16.162Z,88.71
2019-01-13T07:29:16.158Z,88.60
2019-01-13T07:30:26.110Z,88.39
2019-01-13T07:31:16.134Z,87.96
2019-01-13T07:32:16.164Z,88.50
2019-01-13T07:33:16.114Z,88.93
2019-01-13T07:34:16.102Z,88.50
2019-01-13T07:35:16.101Z,88.96
2019-01-13T07:36:16.085Z,88.21
2019-01-13T07:37:16.072Z,88.11
2019-01-13T07:38:16.111Z,88.43
2019-01-13T07:39:16.053Z,88.54
2019-01-13T07:40:16.066Z,88.54
2019-01-13T07:41:16.028Z,89.18
2019-01-13T07:42:16.023Z,89.68
2019-01-13T07:43:16.015Z,89.89
2019-01-13T07:44:17.548Z,90.64
2019-01-13T07:45:15.995Z,90.64
2019-01-13T07:46:16.001Z,89.89
2019-01-13T07:47:15.974Z,89.47
2019-01-13T07:48:16.023Z,90.06
2019-01-13T07:49:15.958Z,90.50
2019-01-13T07:50:16.108Z,89.75
2019-01-13T07:51:15.930Z,89.64
2019-01-13T07:52:15.915Z,89.11
2019-01-13T07:53:15.904Z,89.32
2019-01-13T07:54:15.898Z,89.32
2019-01-13T07:55:15.899Z,89.75
2019-01-13T07:56:15.910Z,89.36
2019-01-13T07:57:15.867Z,89.68
2019-01-13T07:58:15.857Z,89.78
2019-01-13T07:59:15.842Z,89.25
2019-01-13T08:00:15.840Z,88.93
2019-01-13T08:01:26.431Z,88.21
2019-01-13T08:02:18.042Z,88.00
2019-01-13T08:03:15.815Z,88.00
2019-01-13T08:04:15.793Z,88.36
2019-01-13T08:05:15.791Z,88.32
2019-01-13T08:06:15.778Z,88.47
2019-01-13T08:07:15.783Z,87.93
2019-01-13T08:08:15.766Z,87.29
2019-01-13T08:09:15.746Z,88.15
2019-01-13T08:10:15.735Z,87.29
2019-01-13T08:11:15.722Z,87.98
2019-01-13T08:12:15.708Z,88.29
2019-01-13T08:13:15.754Z,88.58
2019-01-13T08:14:15.696Z,88.21
2019-01-13T08:15:15.681Z,88.68
2019-01-13T08:16:15.674Z,87.79
2019-01-13T08:17:15.661Z,87.18
2019-01-13T08:18:15.649Z,86.97
2019-01-13T08:19:15.696Z,87.08
2019-01-13T08:20:15.633Z,87.61
2019-01-13T08:21:15.623Z,88.11
2019-01-13T08:22:15.607Z,87.68
2019-01-13T08:23:15.598Z,86.93
2019-01-13T08:24:15.597Z,86.86
2019-01-13T08:25:15.631Z,86.33
2019-01-13T08:26:15.565Z,85.97
2019-01-13T08:27:15.563Z,85.97
2019-01-13T08:28:15.544Z,86.07
2019-01-13T08:29:15.541Z,85.89
2019-01-13T08:30:15.527Z,86.00
2019-01-13T08:31:15.705Z,86.97
2019-01-13T08:32:25.936Z,87.08
2019-01-13T08:33:15.495Z,86.76
2019-01-13T08:34:15.482Z,87.29
2019-01-13T08:35:15.473Z,86.97
2019-01-13T08:36:15.465Z,87.54
2019-01-13T08:37:15.643Z,88.04
2019-01-13T08:38:15.443Z,88.15
2019-01-13T08:39:15.431Z,88.26
2019-01-13T08:40:15.437Z,88.36
2019-01-13T08:41:15.420Z,88.00
2019-01-13T08:42:15.401Z,88.32
2019-01-13T08:43:15.435Z,88.32
2019-01-13T08:44:15.386Z,88.00
2019-01-13T08:45:15.382Z,88.29
2019-01-13T08:46:15.364Z,88.75
2019-01-13T08:47:15.353Z,89.68
2019-01-13T08:48:15.342Z,89.36
2019-01-13T08:49:15.381Z,89.47
2019-01-13T08:50:15.325Z,89.78
2019-01-13T08:51:15.323Z,89.96
2019-01-13T08:52:15.330Z,89.47
2019-01-13T08:53:15.294Z,89.21
2019-01-13T08:54:15.279Z,89.75
2019-01-13T08:55:15.311Z,90.50
2019-01-13T08:56:15.263Z,89.81
2019-01-13T08:57:15.255Z,89.60
2019-01-13T08:58:15.237Z,89.81
2019-01-13T08:59:15.233Z,87.99
2019-01-13T09:00:15.220Z,87.56
2019-01-13T09:01:15.245Z,87.46
2019-01-13T09:02:15.202Z,87.35
2019-01-13T09:03:27.102Z,86.82
2019-01-13T09:04:15.182Z,88.10
2019-01-13T09:05:15.168Z,88.21
2019-01-13T09:06:15.173Z,88.85
2019-01-13T09:07:15.194Z,89.06
2019-01-13T09:08:15.134Z,89.24
2019-01-13T09:09:15.123Z,88.81
2019-01-13T09:10:15.120Z,88.17
2019-01-13T09:11:15.103Z,88.17
2019-01-13T09:12:15.091Z,88.34
2019-01-13T09:13:15.127Z,88.49
2019-01-13T09:14:15.078Z,87.31
2019-01-13T09:15:15.066Z,87.70
2019-01-13T09:16:15.055Z,88.49
2019-01-13T09:17:15.045Z,87.85
2019-01-13T09:18:15.031Z,88.28
2019-01-13T09:19:15.067Z,88.02
2019-01-13T09:20:15.009Z,88.38
2019-01-13T09:21:14.998Z,87.92
2019-01-13T09:22:14.992Z,87.42
2019-01-13T09:23:14.984Z,88.02
2019-01-13T09:24:14.974Z,87.38
2019-01-13T09:25:14.998Z,87.70
2019-01-13T09:26:15.959Z,87.27
2019-01-13T09:27:14.937Z,87.38
2019-01-13T09:28:14.941Z,87.38
2019-01-13T09:29:14.916Z,86.95
2019-01-13T09:30:14.911Z,86.49
2019-01-13T09:31:14.918Z,86.49
2019-01-13T09:32:14.893Z,87.16
2019-01-13T09:33:14.879Z,87.02
2019-01-13T09:34:24.779Z,86.91
2019-01-13T09:35:14.855Z,86.38
2019-01-13T09:36:14.850Z,86.91
2019-01-13T09:37:14.878Z,86.85
2019-01-13T09:38:14.827Z,86.49
2019-01-13T09:39:14.821Z,86.63
2019-01-13T09:40:14.804Z,87.59
2019-01-13T09:41:14.798Z,88.66
2019-01-13T09:42:14.791Z,88.45
2019-01-13T09:43:14.810Z,88.06
2019-01-13T09:44:14.762Z,88.38
2019-01-13T09:45:14.760Z,88.23
2019-01-13T09:46:14.747Z,88.70
2019-01-13T09:47:14.736Z,88.34
2019-01-13T09:48:14.724Z,88.56
2019-01-13T09:49:14.751Z,88.34
2019-01-13T09:50:14.707Z,87.98
2019-01-13T09:51:14.698Z,88.09
2019-01-13T09:52:14.683Z,87.62
2019-01-13T09:53:14.680Z,86.77
2019-01-13T09:54:14.672Z,85.95
2019-01-13T09:55:14.691Z,85.38
2019-01-13T09:56:14.640Z,85.38
2019-01-13T09:57:14.628Z,85.55
2019-01-13T09:58:14.619Z,85.62
2019-01-13T09:59:14.610Z,84.48
2019-01-13T10:00:14.606Z,85.16
2019-01-13T10:01:14.630Z,84.01
2019-01-13T10:02:14.578Z,82.91
2019-01-13T10:03:14.572Z,82.13
2019-01-13T10:04:14.561Z,80.64
2019-01-13T10:05:24.620Z,79.75
2019-01-13T10:06:14.541Z,81.74
2019-01-13T10:07:14.561Z,80.10
2019-01-13T10:08:14.519Z,79.36
2019-01-13T10:09:14.506Z,77.73
2019-01-13T10:10:14.503Z,72.97
2019-01-13T10:11:14.490Z,70.72
2019-01-13T10:12:14.479Z,68.73
2019-01-13T10:13:14.530Z,66.39
2019-01-13T10:14:14.454Z,67.25
2019-01-13T10:15:14.441Z,65.24
2019-01-13T10:16:14.431Z,64.69
2019-01-13T10:17:14.427Z,63.28
2019-01-13T10:18:14.409Z,62.15
2019-01-13T10:19:14.442Z,62.44
2019-01-13T10:20:14.395Z,62.30
2019-01-13T10:21:14.385Z,61.54
2019-01-13T10:22:14.368Z,60.86
2019-01-13T10:23:14.359Z,62.90
2019-01-13T10:24:14.344Z,65.04
2019-01-13T10:25:14.507Z,66.46
2019-01-13T10:26:14.323Z,69.29
2019-01-13T10:27:14.312Z,69.17
2019-01-13T10:28:14.309Z,71.01
2019-01-13T10:29:14.301Z,72.56
2019-01-13T10:30:14.284Z,72.85
2019-01-13T10:31:14.292Z,73.30
2019-01-13T10:32:14.265Z,74.19
2019-01-13T10:33:14.250Z,74.61
2019-01-13T10:34:14.238Z,74.61
2019-01-13T10:35:14.239Z,75.07
2019-01-13T10:36:24.361Z,75.10
2019-01-13T10:37:14.203Z,76.59
2019-01-13T10:38:14.201Z,76.09
2019-01-13T10:39:14.185Z,76.52
2019-01-13T10:40:14.171Z,76.20
2019-01-13T10:41:14.168Z,77.16
2019-01-13T10:42:14.191Z,77.26
2019-01-13T10:43:14.996Z,76.81
2019-01-13T10:44:14.132Z,76.45
2019-01-13T10:45:14.127Z,76.24
2019-01-13T10:46:14.117Z,76.34
2019-01-13T10:47:14.108Z,76.81
2019-01-13T10:48:14.263Z,76.77
2019-01-13T10:49:14.082Z,76.06
2019-01-13T10:50:14.081Z,75.88
2019-01-13T10:51:14.057Z,76.91
2019-01-13T10:52:14.051Z,77.69
2019-01-13T10:53:14.043Z,78.22
2019-01-13T10:54:14.076Z,79.18
2019-01-13T10:55:14.014Z,78.69
2019-01-13T10:56:14.010Z,76.50
2019-01-13T10:57:13.995Z,73.99
2019-01-13T10:58:13.985Z,70.62
2019-01-13T10:59:13.970Z,64.29
2019-01-13T11:00:14.000Z,60.03
2019-01-13T11:01:13.950Z,55.91
2019-01-13T11:02:13.945Z,53.19
2019-01-13T11:03:13.933Z,54.01
2019-01-13T11:04:14.807Z,58.38
2019-01-13T11:05:13.913Z,62.29
2019-01-13T11:06:13.938Z,66.06
2019-01-13T11:07:24.395Z,69.24
2019-01-13T11:08:13.877Z,68.91
2019-01-13T11:09:13.868Z,64.92
2019-01-13T11:10:13.856Z,62.49
2019-01-13T11:11:13.850Z,61.09
2019-01-13T11:12:13.860Z,60.27
2019-01-13T11:13:13.818Z,60.67
2019-01-13T11:14:13.812Z,60.17
2019-01-13T11:15:21.063Z,57.22
2019-01-13T11:16:14.786Z,57.14
2019-01-13T11:17:13.785Z,56.20
2019-01-13T11:18:13.780Z,56.02
2019-01-13T11:19:13.762Z,53.37
2019-01-13T11:20:13.749Z,53.16
2019-01-13T11:21:13.737Z,52.73
2019-01-13T11:22:13.723Z,55.04
2019-01-13T11:23:13.717Z,57.38
2019-01-13T11:24:13.752Z,58.91
2019-01-13T11:25:13.691Z,55.78
2019-01-13T11:26:13.679Z,55.36
2019-01-13T11:27:13.671Z,54.33
2019-01-13T11:28:13.655Z,54.64
2019-01-13T11:29:13.652Z,53.67
2019-01-13T11:30:13.676Z,53.36
2019-01-13T11:31:13.622Z,53.78
2019-01-13T11:32:13.617Z,54.49
2019-01-13T11:33:13.601Z,56.20
2019-01-13T11:34:13.590Z,56.80
2019-01-13T11:35:13.576Z,56.85
2019-01-13T11:36:13.742Z,55.22
2019-01-13T11:37:13.556Z,53.76
2019-01-13T11:38:25.053Z,53.58
2019-01-13T11:39:13.532Z,52.12
2019-01-13T11:40:13.521Z,50.09
2019-01-13T11:41:13.511Z,50.04
2019-01-13T11:42:13.551Z,53.99
2019-01-13T11:43:13.497Z,57.11
2019-01-13T11:44:13.475Z,60.28
2019-01-13T11:45:13.469Z,62.26
2019-01-13T11:46:13.457Z,65.31
2019-01-13T11:47:13.444Z,67.41
2019-01-13T11:48:13.473Z,69.89
2019-01-13T11:49:13.420Z,70.05
2019-01-13T11:50:13.409Z,71.01
2019-01-13T11:51:13.406Z,72.00
2019-01-13T11:52:13.388Z,73.33
2019-01-13T11:53:13.377Z,74.29
2019-01-13T11:54:13.410Z,75.14
2019-01-13T11:55:13.401Z,75.10
2019-01-13T11:56:13.377Z,74.82
2019-01-13T11:57:13.344Z,74.85
2019-01-13T11:58:15.750Z,75.38
2019-01-13T11:59:13.316Z,75.27
2019-01-13T12:00:13.338Z,75.42
2019-01-13T12:01:13.289Z,75.31
2019-01-13T12:02:13.281Z,75.74
2019-01-13T12:03:17.139Z,75.52
2019-01-13T12:04:13.258Z,76.31
2019-01-13T12:05:13.258Z,76.27
2019-01-13T12:06:13.259Z,77.80
2019-01-13T12:07:13.233Z,78.72
2019-01-13T12:08:13.216Z,78.75
2019-01-13T12:09:24.047Z,79.39
2019-01-13T12:10:14.080Z,79.61
2019-01-13T12:11:13.186Z,79.50
2019-01-13T12:12:13.212Z,79.79
2019-01-13T12:13:13.167Z,78.61
2019-01-13T12:14:13.157Z,77.66
2019-01-13T12:15:13.146Z,77.83
2019-01-13T12:16:13.132Z,77.66
2019-01-13T12:17:13.131Z,78.69
2019-01-13T12:18:13.288Z,79.53
2019-01-13T12:19:13.102Z,79.85
2019-01-13T12:20:13.093Z,79.53
2019-01-13T12:21:13.078Z,79.50
2019-01-13T12:22:13.079Z,80.18
2019-01-13T12:23:13.060Z,79.85
2019-01-13T12:24:13.085Z,79.96
2019-01-13T12:25:13.049Z,80.96
2019-01-13T12:26:13.031Z,81.92
2019-01-13T12:27:13.015Z,82.02
2019-01-13T12:28:13.011Z,81.95
2019-01-13T12:29:13.000Z,82.02
2019-01-13T12:30:13.024Z,82.38
2019-01-13T12:31:12.974Z,83.12
2019-01-13T12:32:12.963Z,83.44
2019-01-13T12:33:12.950Z,83.83
2019-01-13T12:34:12.942Z,83.65
2019-01-13T12:35:12.937Z,83.76
2019-01-13T12:36:12.961Z,83.65
2019-01-13T12:37:12.911Z,83.76
2019-01-13T12:38:12.897Z,83.37
2019-01-13T12:39:12.890Z,82.98
2019-01-13T12:40:22.981Z,83.02
2019-01-13T12:41:12.871Z,84.12
2019-01-13T12:42:12.901Z,85.41
2019-01-13T12:43:12.847Z,85.62
2019-01-13T12:44:12.842Z,85.94
2019-01-13T12:45:12.834Z,85.69
2019-01-13T12:46:12.814Z,85.37
2019-01-13T12:47:12.809Z,85.80
2019-01-13T12:48:12.848Z,85.58
2019-01-13T12:49:12.790Z,86.16
2019-01-13T12:50:12.783Z,85.80
2019-01-13T12:51:12.768Z,85.83
2019-01-13T12:52:12.754Z,86.33